Time;durP1;ratioP1;P1;durP2;ratioP2;P2;SDS_P1;SDS_P2;PMS_P1;PMS_P2;Temp;Humidity;BMP_temperature;BMP_pressure;BME280_temperature;BME280_humidity;BME280_pressure;Samples;Min_cycle;Max_cycle;Signal;HPM_P1;HPM_P2
2021/11/21 00:02:13;;;;;;;3.90;2.13;;;;;;;7.51;94.47;98487.69;1789615;79;21651;-72
2021/11/21 00:04:40;;;;;;;7.55;2.02;;;;;;;7.51;94.42;98473.40;1794939;78;21112;-72
2021/11/21 00:07:07;;;;;;;6.93;2.20;;;;;;;7.49;94.46;98478.66;1762373;79;21040;-72
2021/11/21 00:09:34;;;;;;;6.53;2.30;;;;;;;7.49;94.38;98475.23;1796294;78;20941;-72
2021/11/21 00:12:00;;;;;;;4.37;2.20;;;;;;;7.49;94.40;98476.53;1733103;81;20975;-72
2021/11/21 00:14:27;;;;;;;5.85;2.45;;;;;;;7.47;94.24;98470.58;1760808;79;21142;-72
2021/11/21 00:16:57;;;;;;;5.10;2.22;;;;;;;7.44;94.18;98462.95;1740853;81;20966;-72
2021/11/21 00:19:23;;;;;;;3.75;1.80;;;;;;;7.43;94.28;98466.48;1756001;81;21071;-72
2021/11/21 00:21:50;;;;;;;3.58;1.90;;;;;;;7.44;94.32;98455.16;1753034;80;21013;-73
2021/11/21 00:24:17;;;;;;;4.10;1.90;;;;;;;7.45;94.29;98457.69;1762762;80;21121;-72
2021/11/21 00:26:44;;;;;;;5.25;1.82;;;;;;;7.45;94.28;98464.62;1754081;80;21083;-72
2021/11/21 00:29:11;;;;;;;2.55;1.85;;;;;;;7.45;94.18;98459.42;1747635;79;21040;-72
2021/11/21 00:31:38;;;;;;;3.15;1.87;;;;;;;7.44;94.17;98462.95;1779715;79;21463;-72
2021/11/21 00:34:04;;;;;;;4.35;2.20;;;;;;;7.46;94.21;98463.72;1773691;78;22230;-72
2021/11/21 00:36:31;;;;;;;3.87;2.07;;;;;;;7.46;94.14;98461.13;1785240;79;21605;-72
2021/11/21 00:38:58;;;;;;;3.10;1.77;;;;;;;7.45;94.12;98456.83;1780312;79;21080;-72
2021/11/21 00:41:25;;;;;;;3.83;2.12;;;;;;;7.44;94.07;98455.16;1777890;79;21056;-73
2021/11/21 00:43:54;;;;;;;5.05;1.52;;;;;;;7.45;94.05;98451.63;1779796;79;21020;-72
2021/11/21 00:46:21;;;;;;;4.83;1.80;;;;;;;7.43;94.07;98449.60;1782783;79;21060;-73
2021/11/21 00:48:48;;;;;;;3.98;1.98;;;;;;;7.44;94.09;98444.77;1773707;79;21627;-73
2021/11/21 00:51:17;;;;;;;;;;;;;;;7.45;94.06;98445.14;1783873;79;21099;-73
2021/11/21 00:53:44;;;;;;;3.40;1.60;;;;;;;7.46;94.02;98433.85;1778241;79;21057;-73
2021/11/21 00:56:12;;;;;;;3.30;1.52;;;;;;;7.44;94.01;98434.39;1786041;79;20990;-73
2021/11/21 00:58:39;;;;;;;2.87;1.40;;;;;;;7.43;93.98;98433.55;1778931;79;20920;-73
2021/11/21 01:01:07;;;;;;;3.12;1.60;;;;;;;7.43;93.99;98421.88;1780220;79;21473;-73
2021/11/21 01:03:34;;;;;;;5.05;1.70;;;;;;;7.44;93.93;98429.20;1775542;79;26919;-73
2021/11/21 01:06:01;;;;;;;3.52;1.50;;;;;;;7.44;93.95;98432.63;1780872;79;21515;-73
2021/11/21 01:08:28;;;;;;;3.52;1.42;;;;;;;7.45;93.89;98419.17;1781432;79;21016;-73
2021/11/21 01:11:00;;;;;;;3.25;1.80;;;;;;;7.47;93.93;98421.23;1780997;79;26584;-73
2021/11/21 01:13:27;;;;;;;3.12;1.85;;;;;;;7.48;93.92;98419.00;1747546;81;20962;-73
2021/11/21 01:15:55;;;;;;;3.70;1.65;;;;;;;7.48;93.90;98413.37;1771983;79;21896;-72
2021/11/21 01:18:22;;;;;;;;;;;;;;;7.49;93.89;98412.44;1777483;79;20931;-72
2021/11/21 01:20:49;;;;;;;3.67;1.70;;;;;;;7.50;93.79;98413.27;1772815;79;20495;-72
2021/11/21 01:23:17;;;;;;;5.50;1.75;;;;;;;7.49;93.80;98415.50;1780048;79;20946;-72
2021/11/21 01:25:46;;;;;;;5.97;2.10;;;;;;;7.49;93.85;98406.41;1774396;79;21032;-72
2021/11/21 01:28:15;;;;;;;5.37;2.20;;;;;;;7.50;93.83;98415.86;1770699;79;21048;-72
2021/11/21 01:30:46;;;;;;;8.25;2.08;;;;;;;7.52;93.85;98419.22;1774638;79;21061;-72
2021/11/21 01:33:14;;;;;;;4.47;2.27;;;;;;;7.54;93.81;98406.99;1772837;79;20994;-73
2021/11/21 01:35:41;;;;;;;3.72;1.65;;;;;;;7.55;93.79;98412.55;1774063;79;21053;-73
2021/11/21 01:38:08;;;;;;;7.37;2.10;;;;;;;7.54;93.76;98405.70;1775581;79;21135;-72
2021/11/21 01:40:37;;;;;;;4.10;2.05;;;;;;;7.54;93.73;98394.01;1776004;79;21119;-73
2021/11/21 01:43:04;;;;;;;4.53;1.95;;;;;;;7.55;93.69;98394.38;1773173;79;21560;-72
2021/11/21 01:45:32;;;;;;;;;;;;;;;7.54;93.69;98386.22;1779326;79;21013;-73
2021/11/21 01:47:58;;;;;;;5.55;1.72;;;;;;;7.56;93.69;98384.34;1771569;79;20098;-73
2021/11/21 01:50:33;;;;;;;3.25;1.62;;;;;;;7.54;93.65;98381.85;1753112;79;21630;-73
2021/11/21 01:53:01;;;;;;;3.50;1.70;;;;;;;7.53;93.61;98380.16;1749650;81;21039;-73
2021/11/21 01:55:29;;;;;;;5.05;2.00;;;;;;;7.53;93.66;98371.53;1767818;80;21045;-72
2021/11/21 01:57:57;;;;;;;7.28;1.80;;;;;;;7.53;93.60;98361.98;1759910;79;21066;-73
2021/11/21 02:00:29;;;;;;;6.83;2.30;;;;;;;7.54;93.57;98362.84;1742087;79;20950;-72
2021/11/21 02:02:55;;;;;;;6.15;2.15;;;;;;;7.54;93.57;98352.45;1775662;79;21013;-72
2021/11/21 02:05:23;;;;;;;3.58;1.82;;;;;;;7.53;93.51;98353.35;1776602;79;21135;-72
2021/11/21 02:07:50;;;;;;;4.25;1.80;;;;;;;7.53;93.51;98348.16;1779506;79;20985;-73
2021/11/21 02:10:21;;;;;;;5.22;2.15;;;;;;;7.53;93.53;98345.56;1786809;79;22346;-72
2021/11/21 02:12:48;;;;;;;5.15;2.02;;;;;;;7.52;93.51;98336.11;1761686;79;20994;-72
2021/11/21 02:15:19;;;;;;;3.02;1.60;;;;;;;7.55;93.52;98341.13;1774538;79;20987;-73
2021/11/21 02:17:46;;;;;;;5.75;2.30;;;;;;;7.56;93.48;98342.78;1776073;79;21539;-73
2021/11/21 02:20:25;;;;;;;4.05;1.37;;;;;;;7.54;93.42;98331.67;1780990;79;21578;-73
2021/11/21 02:22:52;;;;;;;4.90;1.70;;;;;;;7.54;93.41;98336.87;1776755;79;21642;-72
2021/11/21 02:25:19;;;;;;;6.33;2.33;;;;;;;7.53;93.39;98335.17;1763596;79;21028;-72
2021/11/21 02:27:46;;;;;;;3.87;1.98;;;;;;;7.54;93.44;98334.27;1778348;79;20973;-72
2021/11/21 02:30:13;;;;;;;5.28;1.85;;;;;;;7.54;93.43;98318.69;1766549;79;21061;-72
2021/11/21 02:32:47;;;;;;;7.50;1.95;;;;;;;7.52;93.39;98332.21;1743554;80;21048;-72
2021/11/21 02:35:20;;;;;;;4.12;1.98;;;;;;;7.50;93.36;98331.45;1762627;80;20959;-73
2021/11/21 02:37:50;;;;;;;5.53;2.47;;;;;;;7.45;93.31;98323.08;1748042;80;21161;-73
2021/11/21 02:40:18;;;;;;;4.55;1.85;;;;;;;7.41;93.33;98321.12;1767412;80;20960;-73
2021/11/21 02:42:46;;;;;;;3.30;1.60;;;;;;;7.39;93.39;98319.94;1764158;80;21651;-73
2021/11/21 02:45:17;;;;;;;7.15;2.08;;;;;;;7.39;93.45;98318.64;1762598;80;21014;-72
2021/11/21 02:47:44;;;;;;;7.78;5.35;;;;;;;7.39;93.47;98313.88;1771156;80;20978;-73
2021/11/21 02:50:14;;;;;;;;;;;;;;;7.39;93.47;98316.04;1775436;80;21228;-73
2021/11/21 02:52:43;;;;;;;3.65;1.67;;;;;;;7.40;93.48;98313.81;1765611;80;20149;-73
2021/11/21 02:55:10;;;;;;;5.50;1.70;;;;;;;7.42;93.48;98305.08;1768079;80;21168;-73
2021/11/21 02:57:37;;;;;;;5.83;1.95;;;;;;;7.43;93.48;98309.37;1759646;80;21674;-73
2021/11/21 03:00:08;;;;;;;4.47;2.03;;;;;;;7.45;93.50;98310.09;1763313;80;21360;-73
2021/11/21 03:02:40;;;;;;;4.40;2.45;;;;;;;7.46;93.40;98305.30;1743158;80;21036;-73
2021/11/21 03:05:07;;;;;;;2.62;1.80;;;;;;;7.47;93.41;98296.57;1739713;80;21112;-72
2021/11/21 03:07:34;;;;;;;4.45;2.30;;;;;;;7.47;93.35;98295.27;1769931;80;21038;-72
2021/11/21 03:10:02;;;;;;;5.90;2.27;;;;;;;7.49;93.38;98289.53;1765085;80;21057;-73
2021/11/21 03:12:29;;;;;;;5.15;2.10;;;;;;;7.50;93.29;98291.20;1761932;78;21834;-73
2021/11/21 03:14:55;;;;;;;3.20;1.30;;;;;;;7.51;93.33;98290.30;1765189;79;21598;-73
2021/11/21 03:17:22;;;;;;;2.15;1.22;;;;;;;7.53;93.34;98287.13;1770898;80;21044;-73
2021/11/21 03:19:50;;;;;;;5.43;2.07;;;;;;;7.54;93.28;98283.63;1766244;79;21213;-73
2021/11/21 03:22:16;;;;;;;;;;;;;;;7.54;93.23;98293.54;1766922;80;21213;-73
2021/11/21 03:24:45;;;;;;;3.25;1.30;;;;;;;7.54;93.23;98283.16;1737761;80;20147;-72
2021/11/21 03:27:12;;;;;;;4.35;1.45;;;;;;;7.56;93.27;98283.05;1767006;80;21059;-72
2021/11/21 03:29:41;;;;;;;1.50;1.00;;;;;;;7.55;93.17;98274.42;1768573;79;20946;-73
2021/11/21 03:32:09;;;;;;;4.78;1.50;;;;;;;7.56;93.12;98277.85;1781788;79;22313;-73
2021/11/21 03:34:38;;;;;;;6.17;1.75;;;;;;;7.55;93.12;98271.00;1780061;79;21101;-73
2021/11/21 03:37:07;;;;;;;4.85;1.80;;;;;;;7.55;93.09;98271.00;1777846;79;20929;-73
2021/11/21 03:39:35;;;;;;;9.35;1.60;;;;;;;7.55;93.08;98272.30;1786284;79;20934;-73
2021/11/21 03:42:04;;;;;;;5.00;1.42;;;;;;;7.53;92.99;98263.75;1772784;79;21023;-73
2021/11/21 03:44:31;;;;;;;4.37;1.27;;;;;;;7.49;92.93;98260.97;1774494;80;21488;-73
2021/11/21 03:47:01;;;;;;;4.12;1.20;;;;;;;7.45;92.93;98257.72;1763515;80;21006;-72
2021/11/21 03:49:28;;;;;;;3.67;1.65;;;;;;;7.43;93.00;98253.54;1765139;80;21531;-73
2021/11/21 03:51:54;;;;;;;3.85;1.40;;;;;;;7.40;93.01;98247.59;1758409;79;20997;-72
2021/11/21 03:54:21;;;;;;;5.03;1.67;;;;;;;7.35;92.98;98250.91;1766935;79;20985;-73
2021/11/21 03:56:48;;;;;;;5.37;1.30;;;;;;;7.31;93.03;98242.94;1780538;79;21070;-73
2021/11/21 03:59:15;;;;;;;2.98;1.20;;;;;;;7.28;93.06;98236.62;1748034;81;21075;-73
2021/11/21 04:01:42;;;;;;;2.92;1.00;;;;;;;7.24;93.11;98244.20;1769920;79;21026;-73
2021/11/21 04:04:12;;;;;;;3.10;1.22;;;;;;;7.22;93.15;98243.44;1747454;81;21135;-73
2021/11/21 04:06:40;;;;;;;3.05;1.30;;;;;;;7.18;93.18;98240.66;1731315;80;21009;-73
2021/11/21 04:09:07;;;;;;;3.33;1.35;;;;;;;7.15;93.19;98247.33;1776170;79;21084;-73
2021/11/21 04:11:34;;;;;;;1.98;0.90;;;;;;;7.09;93.49;98248.98;1741888;81;21100;-73
2021/11/21 04:14:00;;;;;;;4.42;1.92;;;;;;;7.09;93.49;98248.98;1772937;79;20963;-73
2021/11/21 04:16:28;;;;;;;2.75;1.12;;;;;;;7.09;93.41;98250.27;1772161;79;20945;-73
2021/11/21 04:18:55;;;;;;;1.42;0.72;;;;;;;7.09;93.50;98243.31;1778326;79;21528;-73
2021/11/21 04:21:22;;;;;;;3.10;0.90;;;;;;;7.10;93.49;98241.55;1777197;79;24852;-73
2021/11/21 04:23:57;;;;;;;1.62;0.60;;;;;;;7.06;93.48;98246.56;1760385;81;21538;-73
2021/11/21 04:26:25;;;;;;;3.15;1.10;;;;;;;7.06;93.55;98236.17;1765426;79;22595;-73
2021/11/21 04:28:53;;;;;;;3.27;1.20;;;;;;;7.06;93.61;98237.47;1764913;79;26552;-72
2021/11/21 04:31:19;;;;;;;2.27;0.90;;;;;;;7.06;93.71;98240.90;1742554;81;21011;-73
2021/11/21 04:33:50;;;;;;;1.57;0.90;;;;;;;7.04;93.63;98224.57;1771351;81;21887;-72
2021/11/21 04:36:17;;;;;;;1.52;0.80;;;;;;;7.02;93.69;98233.36;1762221;80;22002;-72
2021/11/21 04:38:43;;;;;;;1.55;0.85;;;;;;;7.01;93.77;98218.73;1763712;79;21271;-73
2021/11/21 04:41:11;;;;;;;2.03;1.00;;;;;;;7.01;93.80;98221.32;1766124;79;21091;-73
2021/11/21 04:43:38;;;;;;;2.00;0.98;;;;;;;7.00;93.86;98222.23;1756857;81;21162;-73
2021/11/21 04:46:04;;;;;;;1.13;0.80;;;;;;;7.00;93.89;98218.33;1754288;81;21106;-72
2021/11/21 04:48:31;;;;;;;0.97;0.77;;;;;;;7.02;94.02;98216.50;1757066;79;21108;-73
2021/11/21 04:51:02;;;;;;;2.33;0.70;;;;;;;7.01;93.96;98216.13;1769273;79;21835;-72
2021/11/21 04:53:31;;;;;;;1.00;0.60;;;;;;;7.02;94.03;98217.80;1739966;81;21551;-72
2021/11/21 04:55:57;;;;;;;1.53;0.83;;;;;;;6.99;94.05;98203.70;1749422;79;21149;-72
2021/11/21 04:58:24;;;;;;;1.20;0.60;;;;;;;7.00;94.14;98206.66;1749094;81;21536;-73
2021/11/21 05:00:52;;;;;;;0.70;0.50;;;;;;;7.00;94.43;98202.77;1760755;80;21543;-72
2021/11/21 05:03:18;;;;;;;3.33;0.78;;;;;;;7.00;94.43;98202.77;1760850;79;20965;-72
2021/11/21 05:05:45;;;;;;;1.13;0.50;;;;;;;7.02;94.23;98208.71;1762017;79;20965;-72
2021/11/21 05:08:16;;;;;;;0.88;0.68;;;;;;;7.03;94.38;98196.95;1775527;79;21014;-72
2021/11/21 05:10:43;;;;;;;0.90;0.57;;;;;;;7.04;94.30;98196.49;1763489;80;21394;-72
2021/11/21 05:13:10;;;;;;;0.90;0.50;;;;;;;7.03;94.31;98188.31;1738564;81;20988;-72
2021/11/21 05:15:36;;;;;;;0.82;0.60;;;;;;;7.05;94.37;98194.26;1766016;80;21652;-72
2021/11/21 05:18:03;;;;;;;1.00;0.80;;;;;;;7.04;94.42;98195.19;1778308;79;20991;-73
2021/11/21 05:20:30;;;;;;;0.47;0.43;;;;;;;7.03;94.47;98194.80;1743805;79;21002;-72
2021/11/21 05:22:57;;;;;;;1.00;0.90;;;;;;;7.05;94.62;98189.07;1774646;79;21100;-72
2021/11/21 05:25:24;;;;;;;1.25;0.40;;;;;;;7.07;94.62;98189.83;1781319;79;21106;-72
2021/11/21 05:27:51;;;;;;;1.62;0.93;;;;;;;7.07;94.64;98183.34;1779273;79;20938;-72
2021/11/21 05:30:21;;;;;;;0.85;0.72;;;;;;;7.09;94.67;98187.98;1779253;79;21699;-73
2021/11/21 05:32:49;;;;;;;0.80;0.60;;;;;;;7.10;94.67;98189.64;1733498;81;21061;-72
2021/11/21 05:35:17;;;;;;;0.85;0.53;;;;;;;7.10;94.67;98185.75;1755072;79;21130;-73
2021/11/21 05:37:46;;;;;;;0.88;0.40;;;;;;;7.10;94.79;98181.86;1762139;79;21139;-72
2021/11/21 05:40:15;;;;;;;0.65;0.60;;;;;;;7.10;94.80;98177.97;1770947;79;21799;-73
2021/11/21 05:42:47;;;;;;;0.65;0.55;;;;;;;7.12;94.83;98181.31;1775337;79;20965;-73
2021/11/21 05:45:14;;;;;;;1.25;0.80;;;;;;;7.12;94.84;98178.72;1776375;79;21093;-73
2021/11/21 05:47:41;;;;;;;0.70;0.40;;;;;;;7.11;94.89;98180.92;1772345;79;21585;-73
2021/11/21 05:50:12;;;;;;;0.60;0.60;;;;;;;7.11;94.89;98186.11;1762386;79;22221;-73
2021/11/21 05:52:38;;;;;;;0.78;0.60;;;;;;;7.11;94.98;98180.92;1761886;79;21010;-73
2021/11/21 05:55:06;;;;;;;0.57;0.40;;;;;;;7.10;94.98;98172.30;1740762;81;21001;-73
2021/11/21 05:57:33;;;;;;;1.27;0.70;;;;;;;7.10;95.00;98171.48;1748123;81;21024;-72
2021/11/21 05:59:59;;;;;;;2.42;0.60;;;;;;;7.12;95.14;98167.04;1774410;79;22055;-73
2021/11/21 06:02:28;;;;;;;1.10;1.00;;;;;;;7.11;95.10;98162.75;1764856;80;20996;-73
2021/11/21 06:04:56;;;;;;;1.05;0.70;;;;;;;7.11;95.17;98170.54;1759403;79;21150;-73
2021/11/21 06:07:22;;;;;;;0.90;0.80;;;;;;;7.11;95.21;98167.95;1778943;79;21052;-73
2021/11/21 06:09:49;;;;;;;0.85;0.70;;;;;;;7.11;95.26;98165.35;1774493;79;21510;-73
2021/11/21 06:12:16;;;;;;;0.70;0.40;;;;;;;7.09;95.25;98172.41;1750489;79;21102;-73
2021/11/21 06:14:43;;;;;;;0.63;0.50;;;;;;;7.09;95.35;98169.81;1749903;81;21008;-73
2021/11/21 06:17:10;;;;;;;1.80;0.70;;;;;;;7.07;95.42;98170.36;1739949;80;21567;-72
2021/11/21 06:19:38;;;;;;;0.95;0.50;;;;;;;7.07;95.42;98170.36;1765858;79;21355;-73
2021/11/21 06:22:05;;;;;;;0.62;0.50;;;;;;;7.08;95.48;98168.12;1737469;80;21124;-73
2021/11/21 06:24:32;;;;;;;0.47;0.35;;;;;;;7.09;95.50;98167.22;1779782;79;21903;-73
2021/11/21 06:26:59;;;;;;;0.53;0.50;;;;;;;7.08;95.47;98175.91;1775929;79;21043;-73
2021/11/21 06:29:26;;;;;;;0.68;0.60;;;;;;;7.08;95.54;98161.64;1781179;78;20990;-72
2021/11/21 06:31:52;;;;;;;0.70;0.47;;;;;;;7.09;95.61;98171.12;1778805;78;21086;-73
2021/11/21 06:34:19;;;;;;;1.07;0.60;;;;;;;7.08;95.61;98158.58;1784434;78;21021;-73
2021/11/21 06:36:46;;;;;;;1.60;0.90;;;;;;;7.09;95.64;98164.63;1762777;79;21698;-72
2021/11/21 06:39:13;;;;;;;0.80;0.72;;;;;;;7.09;95.69;98164.63;1772668;79;21072;-72
2021/11/21 06:41:40;;;;;;;0.50;0.50;;;;;;;7.10;95.76;98166.28;1729017;81;21630;-73
2021/11/21 06:44:09;;;;;;;0.50;0.30;;;;;;;7.12;95.80;98172.23;1769050;79;21048;-73
2021/11/21 06:46:56;;;;;;;1.57;0.57;;;;;;;7.13;95.83;98173.89;1716737;82;21001;-73
2021/11/21 06:49:23;;;;;;;1.27;0.97;;;;;;;7.13;95.87;98172.59;1724348;82;21202;-73
2021/11/21 06:51:50;;;;;;;0.62;0.62;;;;;;;7.14;95.93;98170.36;1708583;82;21042;-73
2021/11/21 06:54:17;;;;;;;0.60;0.42;;;;;;;7.15;95.97;98177.25;1736730;82;21619;-73
2021/11/21 06:56:44;;;;;;;0.65;0.42;;;;;;;7.17;96.00;98168.91;1727239;81;21032;-73
2021/11/21 06:59:11;;;;;;;0.82;0.50;;;;;;;7.18;95.99;98174.47;1732010;81;21596;-73
2021/11/21 07:01:40;;;;;;;0.30;0.30;;;;;;;7.20;96.00;98175.22;1737916;81;21609;-73
2021/11/21 07:04:06;;;;;;;1.77;0.78;;;;;;;7.21;96.04;98174.28;1711440;81;21048;-73
2021/11/21 07:09:24;;;;;;;0.70;0.50;;;;;;;7.25;96.03;98178.36;1689459;84;21052;-73
2021/11/21 07:11:52;;;;;;;1.60;0.67;;;;;;;7.25;96.09;98165.84;1683707;84;21577;-73
2021/11/21 07:14:18;;;;;;;;;;;;;;;7.27;96.13;98168.73;1697086;83;21938;-72
2021/11/21 07:16:49;;;;;;;0.62;0.42;;;;;;;7.29;96.15;98166.05;1685820;84;20094;-73
2021/11/21 07:19:16;;;;;;;0.57;0.30;;;;;;;7.28;96.16;98174.75;1689595;84;20972;-73
2021/11/21 07:21:44;;;;;;;;;;;;;;;7.28;96.21;98180.80;1692037;83;21001;-73
2021/11/21 07:24:12;;;;;;;0.75;0.50;;;;;;;7.27;96.21;98179.11;1692669;84;20134;-72
2021/11/21 07:26:40;;;;;;;1.47;0.85;;;;;;;7.26;96.26;98169.66;1694922;84;21720;-73
2021/11/21 07:29:08;;;;;;;1.25;0.60;;;;;;;7.25;96.22;98158.89;1691135;84;20996;-72
2021/11/21 07:31:35;;;;;;;;;;;;;;;7.25;96.32;98166.67;1692064;84;21040;-72
2021/11/21 07:34:04;;;;;;;1.62;0.60;;;;;;;7.26;96.32;98161.88;1662906;83;20086;-72
2021/11/21 07:36:31;;;;;;;1.00;0.68;;;;;;;7.27;96.37;98163.53;1685744;84;21009;-73
2021/11/21 07:38:58;;;;;;;1.62;0.68;;;;;;;7.28;96.40;98169.13;1685838;83;21049;-73
2021/11/21 07:41:25;;;;;;;2.25;0.70;;;;;;;7.30;96.43;98181.53;1661044;84;21642;-73
2021/11/21 07:43:52;;;;;;;0.72;0.55;;;;;;;7.32;96.47;98180.16;1687310;84;21465;-73
2021/11/21 07:46:20;;;;;;;0.68;0.68;;;;;;;7.34;96.46;98179.61;1670975;84;20953;-72
2021/11/21 07:48:46;;;;;;;2.98;0.80;;;;;;;7.36;96.47;98181.16;1695298;84;21056;-73
2021/11/21 07:51:13;;;;;;;1.40;0.90;;;;;;;7.36;96.37;98185.52;1690571;83;21065;-73
2021/11/21 07:53:40;;;;;;;1.92;0.93;;;;;;;7.34;96.46;98195.19;1693299;83;20883;-73
2021/11/21 07:56:07;;;;;;;2.47;1.20;;;;;;;7.34;96.47;98196.02;1690462;84;20878;-73
2021/11/21 07:58:34;;;;;;;0.90;0.78;;;;;;;7.35;96.51;98194.25;1665581;83;20953;-72
2021/11/21 08:01:00;;;;;;;2.40;0.72;;;;;;;7.37;96.58;98193.24;1690248;84;20989;-76
2021/11/21 08:03:29;;;;;;;1.77;0.93;;;;;;;7.40;96.61;98208.64;1687816;83;20981;-73
2021/11/21 08:06:00;;;;;;;1.12;0.88;;;;;;;7.43;96.65;98205.03;1691458;84;21041;-72
2021/11/21 08:08:27;;;;;;;1.57;0.72;;;;;;;7.48;96.66;98196.95;1663776;84;20906;-72
2021/11/21 08:10:53;;;;;;;2.00;0.70;;;;;;;7.50;96.60;98206.33;1690882;83;20934;-74
2021/11/21 08:13:20;;;;;;;1.95;0.82;;;;;;;7.51;96.61;98211.91;1661016;84;20935;-74
2021/11/21 08:15:48;;;;;;;1.27;1.00;;;;;;;7.53;96.54;98219.59;1685412;84;21289;-73
2021/11/21 08:18:16;;;;;;;2.45;0.90;;;;;;;7.54;96.52;98222.58;1681764;83;21541;-73
2021/11/21 08:20:44;;;;;;;1.95;1.00;;;;;;;7.55;96.51;98219.88;1683490;84;20950;-74
2021/11/21 08:23:12;;;;;;;2.08;1.17;;;;;;;7.56;96.47;98228.50;1682219;84;21009;-73
2021/11/21 08:25:40;;;;;;;2.98;1.35;;;;;;;7.59;96.38;98230.95;1659497;84;20938;-73
2021/11/21 08:28:07;;;;;;;4.35;2.02;;;;;;;7.65;96.50;98235.77;1685203;84;21875;-74
2021/11/21 08:30:37;;;;;;;3.80;1.30;;;;;;;7.69;96.40;98239.84;1659896;85;21553;-73
2021/11/21 08:33:07;;;;;;;2.42;1.30;;;;;;;7.75;96.38;98244.67;1683653;84;21508;-74
2021/11/21 08:35:35;;;;;;;2.15;1.00;;;;;;;7.80;96.38;98250.44;1682529;84;20992;-74
2021/11/21 08:38:02;;;;;;;1.60;0.70;;;;;;;7.83;96.24;98242.46;1630944;85;20979;-75
2021/11/21 08:40:30;;;;;;;1.75;0.68;;;;;;;7.83;96.03;98247.66;1681634;84;21042;-74
2021/11/21 08:42:59;;;;;;;3.20;0.90;;;;;;;7.81;96.04;98261.67;1684331;84;21513;-74
2021/11/21 08:45:27;;;;;;;2.15;0.75;;;;;;;7.78;96.00;98252.28;1686117;85;21037;-73
2021/11/21 08:47:54;;;;;;;2.20;0.80;;;;;;;7.70;95.86;98262.33;1661350;85;20934;-74
2021/11/21 08:50:22;;;;;;;2.77;0.50;;;;;;;7.67;96.02;98247.36;1663927;84;26996;-73
2021/11/21 08:52:49;;;;;;;3.80;1.00;;;;;;;7.63;96.00;98259.70;1682518;84;21906;-73
2021/11/21 08:55:16;;;;;;;1.77;1.02;;;;;;;7.63;96.22;98255.80;1682754;84;21035;-73
2021/11/21 08:57:45;;;;;;;4.25;1.50;;;;;;;7.65;96.47;98229.28;1667361;84;21747;-73
2021/11/21 09:00:15;;;;;;;3.92;1.10;;;;;;;7.76;96.36;98259.36;1659640;85;20985;-74
2021/11/21 09:02:43;;;;;;;2.87;1.00;;;;;;;7.77;96.17;98248.03;1653318;85;21029;-74
2021/11/21 09:05:09;;;;;;;;;;;;;;;7.79;96.24;98263.54;1658633;84;21271;-73
2021/11/21 09:07:44;;;;;;;2.55;0.88;;;;;;;7.79;95.97;98265.67;1614104;86;20837;-73
2021/11/21 09:10:15;;;;;;;2.08;0.70;;;;;;;7.79;96.02;98270.87;1683282;84;20931;-73
2021/11/21 09:12:44;;;;;;;1.67;0.57;;;;;;;7.77;95.91;98276.61;1679767;84;21119;-73
2021/11/21 09:15:15;;;;;;;0.95;0.62;;;;;;;7.73;95.80;98271.67;1682901;84;21504;-73
2021/11/21 09:17:45;;;;;;;3.33;1.02;;;;;;;7.60;95.49;98274.17;1669642;84;21210;-73
2021/11/21 09:20:13;;;;;;;1.62;0.88;;;;;;;7.57;95.78;98275.18;1677566;85;21660;-72
2021/11/21 09:22:41;;;;;;;3.25;0.70;;;;;;;7.52;95.69;98281.09;1670561;84;21077;-72
2021/11/21 09:25:08;;;;;;;2.95;0.68;;;;;;;7.47;95.60;98277.09;1651269;85;20978;-72
2021/11/21 09:27:37;;;;;;;3.30;0.50;;;;;;;7.39;95.54;98277.09;1668933;85;21482;-71
2021/11/21 09:30:09;;;;;;;2.27;0.72;;;;;;;7.31;95.42;98296.59;1680408;84;21240;-72
2021/11/21 09:32:36;;;;;;;2.27;0.70;;;;;;;7.21;95.44;98291.10;1646377;84;21849;-73
2021/11/21 09:35:06;;;;;;;2.80;0.80;;;;;;;7.10;95.11;98298.66;1650472;84;21021;-73
2021/11/21 09:37:33;;;;;;;1.67;0.88;;;;;;;7.08;95.57;98292.70;1667327;85;20985;-74
2021/11/21 09:40:03;;;;;;;2.33;1.00;;;;;;;7.07;95.59;98294.94;1678615;83;20993;-73
2021/11/21 09:42:31;;;;;;;2.62;0.57;;;;;;;7.07;95.40;98306.61;1641401;85;21063;-73
2021/11/21 09:44:57;;;;;;;;;;;;;;;7.03;95.01;98297.31;1680188;83;21014;-73
2021/11/21 09:47:24;;;;;;;3.92;1.15;;;;;;;7.01;95.19;98296.58;1680918;84;20281;-74
2021/11/21 09:49:52;;;;;;;1.40;0.47;;;;;;;7.04;95.38;98297.70;1679117;83;20992;-74
2021/11/21 09:52:19;;;;;;;2.22;0.95;;;;;;;7.01;94.68;98304.36;1676032;83;21053;-74
2021/11/21 09:54:47;;;;;;;2.17;0.95;;;;;;;7.00;94.87;98319.54;1670634;84;21067;-73
2021/11/21 09:57:13;;;;;;;5.00;1.12;;;;;;;6.98;94.85;98319.64;1682058;85;21069;-74
2021/11/21 10:00:02;;;;;;;2.15;0.80;;;;;;;7.00;94.99;98323.43;1642385;86;20940;-74
2021/11/21 10:02:33;;;;;;;4.35;0.85;;;;;;;7.03;94.58;98320.66;1677048;83;21055;-73
2021/11/21 10:05:05;;;;;;;3.05;0.95;;;;;;;7.04;94.39;98330.14;1675129;84;20954;-73
2021/11/21 10:07:35;;;;;;;2.77;0.80;;;;;;;7.08;94.43;98322.55;1681619;84;21980;-73
2021/11/21 10:10:07;;;;;;;2.33;0.82;;;;;;;7.15;94.66;98322.60;1679450;83;20969;-74
2021/11/21 10:12:43;;;;;;;3.90;1.30;;;;;;;7.20;94.55;98325.78;1669588;84;20999;-74
2021/11/21 10:15:16;;;;;;;5.47;1.02;;;;;;;7.28;94.57;98318.41;1651359;84;21021;-73
2021/11/21 10:17:49;;;;;;;2.62;1.10;;;;;;;7.35;93.79;98331.87;1674713;84;20994;-74
2021/11/21 10:20:28;;;;;;;3.00;0.90;;;;;;;7.39;93.75;98329.45;1627163;84;21300;-74
2021/11/21 10:23:00;;;;;;;4.70;0.93;;;;;;;7.48;94.36;98325.06;1670989;84;20978;-74
2021/11/21 10:25:38;;;;;;;2.80;0.80;;;;;;;7.52;93.92;98323.13;1676571;84;20954;-73
2021/11/21 10:28:28;;;;;;;3.70;1.60;;;;;;;7.59;93.56;98333.55;1674231;84;20962;-73
2021/11/21 10:31:21;;;;;;;3.65;1.00;;;;;;;7.67;93.59;98327.42;1616367;87;21066;-73
2021/11/21 10:33:54;;;;;;;2.75;0.80;;;;;;;7.76;93.32;98329.52;1673655;84;21540;-74
2021/11/21 10:36:26;;;;;;;3.05;0.98;;;;;;;7.85;93.21;98323.77;1680090;84;20969;-73
2021/11/21 10:39:03;;;;;;;2.37;0.90;;;;;;;8.02;92.47;98329.75;1668367;84;21065;-74
2021/11/21 10:41:40;;;;;;;3.90;0.90;;;;;;;8.25;93.33;98321.41;1672359;84;21057;-73
2021/11/21 10:44:14;;;;;;;3.80;1.47;;;;;;;8.41;92.84;98336.12;1608391;87;20995;-73
2021/11/21 10:46:53;;;;;;;4.53;1.10;;;;;;;8.50;93.16;98333.80;1676624;85;21584;-73
2021/11/21 10:49:30;;;;;;;3.33;1.00;;;;;;;8.68;93.25;98345.30;1670126;84;20923;-73
2021/11/21 10:52:06;;;;;;;3.15;0.90;;;;;;;8.58;90.28;98343.74;1680598;84;20975;-73
2021/11/21 10:54:47;;;;;;;4.00;1.00;;;;;;;8.42;91.46;98341.70;1640519;85;21086;-73
2021/11/21 10:57:21;;;;;;;4.85;1.05;;;;;;;8.27;91.16;98345.56;1663275;85;20986;-73
2021/11/21 11:00:03;;;;;;;4.62;1.10;;;;;;;8.08;90.24;98352.78;1642463;85;21041;-73
2021/11/21 11:02:40;;;;;;;3.40;0.78;;;;;;;7.92;89.27;98352.00;1680352;84;20977;-73
2021/11/21 11:05:09;;;;;;;;;;;;;;;7.83;90.31;98361.99;1648417;85;20946;-73
2021/11/21 11:07:56;;;;;;;3.37;1.20;;;;;;;7.75;90.92;98364.20;1648752;85;20829;-74
2021/11/21 11:10:30;;;;;;;4.53;1.25;;;;;;;7.72;91.20;98369.56;1639802;85;20912;-73
2021/11/21 11:13:03;;;;;;;3.72;1.00;;;;;;;7.67;91.35;98370.29;1651035;85;21509;-73
2021/11/21 11:15:33;;;;;;;3.08;0.90;;;;;;;7.67;91.13;98374.19;1677173;84;20950;-73
2021/11/21 11:18:00;;;;;;;2.25;0.70;;;;;;;7.58;90.86;98377.31;1678305;84;21469;-80
2021/11/21 11:20:28;;;;;;;4.15;0.90;;;;;;;7.46;89.87;98381.91;1639584;85;21056;-73
2021/11/21 11:22:58;;;;;;;4.75;1.12;;;;;;;7.27;89.60;98386.81;1676340;83;20990;-73
2021/11/21 11:25:31;;;;;;;5.85;0.98;;;;;;;7.14;90.16;98386.66;1639932;87;21071;-73
2021/11/21 11:28:33;;;;;;;6.83;1.40;;;;;;;7.07;90.17;98389.66;1683098;83;20909;-73
2021/11/21 11:31:01;;;;;;;4.42;0.85;;;;;;;7.07;90.73;98385.77;1641274;85;20975;-73
2021/11/21 11:33:42;;;;;;;3.70;0.82;;;;;;;7.14;91.21;98388.39;1684399;84;21574;-73
2021/11/21 11:36:24;;;;;;;4.53;1.15;;;;;;;7.19;91.05;98398.08;1670348;84;20982;-74
2021/11/21 11:39:09;;;;;;;3.67;1.22;;;;;;;7.21;90.95;98394.94;1678426;84;21046;-73
2021/11/21 11:41:36;;;;;;;3.22;1.42;;;;;;;7.25;91.12;98400.33;1635016;87;21534;-74
2021/11/21 11:44:07;;;;;;;5.78;1.10;;;;;;;7.29;91.25;98408.34;1662853;83;20955;-72
2021/11/21 11:46:35;;;;;;;3.12;1.10;;;;;;;7.21;90.46;98427.86;1643436;85;20994;-73
2021/11/21 11:49:08;;;;;;;1.67;0.45;;;;;;;6.85;89.67;98414.16;1682363;84;21033;-73
2021/11/21 11:51:42;;;;;;;4.20;0.80;;;;;;;6.36;88.22;98415.42;1668091;85;21964;-72
2021/11/21 11:54:24;;;;;;;4.20;0.95;;;;;;;6.12;89.50;98421.84;1680413;84;20923;-72
2021/11/21 11:57:04;;;;;;;5.70;1.25;;;;;;;6.02;90.39;98421.01;1681327;84;20980;-71